Overview Statistics Trail Chart Weather Telemetry Raw packets
 

This is the latest recevied weather packets stored in our database for station/object HP1CDW-10. If no packets are shown the sender has not sent any weather packets the latest 10 day(s).

<< 4 5 6 7 8 9 10 >>
Time Temp. Humidity Pressure Rain* Wind** Luminosity Snow
1788552784 35.56° C 51% 1000.9 hPa - - - -
1788552179 36.67° C 49% 1001.2 hPa - - - -
1788551574 36.67° C 50% 1001.6 hPa - - - -
1788550970 36.67° C 50% 1000.9 hPa - - - -
1788550365 35.56° C 53% 1001.1 hPa - - - -
1788549760 36.11° C 48% 1001.3 hPa - - - -
1788549155 36.11° C 47% 1001.4 hPa - - - -
1788548550 36.11° C 46% 1001.6 hPa - - - -
1788547946 36.11° C 45% 1001.8 hPa - - - -
1788547341 36.11° C 46% 1002.4 hPa - - - -
1788546736 36.11° C 47% 1003 hPa - - - -
1788546131 36.67° C 47% 1003.3 hPa - - - -
1788545527 36.67° C 46% 1003 hPa - - - -
1788544922 36.67° C 46% 1002.4 hPa - - - -
1788544317 36.67° C 46% 1002.3 hPa - - - -
1788543712 36.67° C 47% 1002.6 hPa - - - -
1788543107 36.67° C 46% 1002.8 hPa - - - -
1788542503 36.11° C 47% 1002.7 hPa - - - -
1788541898 36.11° C 45% 1003.2 hPa - - - -
1788541293 36.11° C 45% 1003.6 hPa - - - -
1788540688 36.11° C 45% 1003.8 hPa - - - -
1788540083 35.56° C 46% 1003.7 hPa - - - -
1788539479 35.56° C 48% 1003.8 hPa - - - -
1788538874 35.56° C 47% 1003.9 hPa - - - -
1788537060 35.56° C 49% 1004.1 hPa - - - -

* Rain since midnight (hover to see other rain measurements)
** Current wind speed in m/s (hover to see current wind gust speed)